Time;durP1;ratioP1;P1;durP2;ratioP2;P2;SDS_P1;SDS_P2;PMS_P1;PMS_P2;Temp;Humidity;BMP_temperature;BMP_pressure;BME280_temperature;BME280_humidity;BME280_pressure;Samples;Min_cycle;Max_cycle;Signal;HPM_P1;HPM_P2
2022/08/03 00:01:52;;;;;;;12.10;2.50;;;19.30;99.90;;;;;;5069570;28;20460;-81
2022/08/03 00:04:18;;;;;;;12.40;2.30;;;19.20;99.90;;;;;;5069436;28;20068;-82
2022/08/03 00:06:43;;;;;;;8.68;2.40;;;19.20;99.90;;;;;;5071191;28;20495;-82
2022/08/03 00:09:09;;;;;;;9.10;2.40;;;19.10;99.90;;;;;;5072953;28;20048;-82
2022/08/03 00:11:35;;;;;;;8.90;2.08;;;19.10;99.90;;;;;;5072902;28;20044;-80
2022/08/03 00:14:01;;;;;;;6.22;2.03;;;19.30;99.90;;;;;;5072670;28;20109;-80
2022/08/03 00:16:27;;;;;;;8.50;2.28;;;19.10;99.90;;;;;;5072190;28;20103;-82
2022/08/03 00:18:53;;;;;;;9.77;2.58;;;19.10;99.90;;;;;;5078177;28;20457;-82
2022/08/03 00:21:18;;;;;;;9.38;2.50;;;19.10;99.90;;;;;;5093153;28;20533;-81
2022/08/03 00:23:44;;;;;;;10.15;2.63;;;19.20;99.90;;;;;;5092950;28;20047;-81
2022/08/03 00:26:10;;;;;;;7.75;2.70;;;19.00;99.90;;;;;;5074835;28;20815;-81
2022/08/03 00:28:35;;;;;;;7.90;2.40;;;19.00;99.90;;;;;;5091196;28;20123;-82
2022/08/03 00:31:01;;;;;;;13.48;2.67;;;19.00;99.90;;;;;;5078630;28;20052;-81
2022/08/03 00:33:27;;;;;;;9.30;2.35;;;19.00;99.90;;;;;;5072642;28;20036;-80
2022/08/03 00:35:52;;;;;;;11.52;2.33;;;18.90;99.90;;;;;;5072650;28;20056;-81
2022/08/03 00:38:19;;;;;;;8.95;3.05;;;18.90;99.90;;;;;;5054390;28;20048;-80
2022/08/03 00:40:45;;;;;;;9.18;2.28;;;18.90;99.90;;;;;;5055439;28;20173;-79
2022/08/03 00:43:11;;;;;;;10.82;2.45;;;18.90;99.90;;;;;;5072265;28;20047;-81
2022/08/03 00:45:40;;;;;;;8.93;1.92;;;18.80;99.90;;;;;;5063786;28;20045;-80
2022/08/03 00:48:07;;;;;;;10.75;2.70;;;18.90;99.90;;;;;;5051912;28;20056;-81
2022/08/03 00:50:39;;;;;;;10.68;2.47;;;18.90;99.90;;;;;;5063300;28;20036;-82
2022/08/03 00:53:06;;;;;;;10.25;2.15;;;18.90;99.90;;;;;;5072210;28;20488;-81
2022/08/03 00:55:32;;;;;;;11.02;2.30;;;18.70;99.90;;;;;;5072155;28;20376;-84
2022/08/03 00:57:58;;;;;;;13.23;2.15;;;18.80;99.90;;;;;;5072005;28;20105;-82
2022/08/03 01:00:25;;;;;;;12.35;2.15;;;18.80;99.90;;;;;;5073010;28;20048;-81
2022/08/03 01:02:52;;;;;;;9.05;2.03;;;18.80;99.90;;;;;;5071878;28;20072;-81
2022/08/03 01:05:22;;;;;;;10.90;2.05;;;18.80;99.90;;;;;;5071810;28;20064;-83
2022/08/03 01:08:34;;;;;;;8.05;1.65;;;18.80;99.90;;;;;;5124024;23;20540;-81
2022/08/03 01:11:14;;;;;;;9.93;2.10;;;18.70;99.90;;;;;;5054554;28;20499;-82
2022/08/03 01:13:39;;;;;;;7.07;2.25;;;18.70;99.90;;;;;;5036592;28;20068;-84
2022/08/03 01:16:18;;;;;;;11.10;1.90;;;18.70;99.90;;;;;;5070082;28;20091;-82
2022/08/03 01:19:16;;;;;;;10.45;1.88;;;18.80;99.90;;;;;;5071711;28;20048;-80
2022/08/03 01:22:07;;;;;;;14.38;2.10;;;18.70;99.90;;;;;;5029425;28;20057;-81
2022/08/03 01:24:54;;;;;;;11.15;1.90;;;18.70;99.90;;;;;;5029539;28;20490;-81
2022/08/03 01:27:37;;;;;;;14.00;1.98;;;18.70;99.90;;;;;;5018512;28;20041;-81
2022/08/03 01:30:04;;;;;;;11.88;2.20;;;18.70;99.90;;;;;;5043702;28;20076;-83
2022/08/03 01:32:39;;;;;;;8.50;2.15;;;18.60;99.90;;;;;;5026267;28;20053;-81
2022/08/03 01:35:16;;;;;;;7.75;1.92;;;18.60;99.90;;;;;;5031302;28;20089;-80
2022/08/03 01:37:48;;;;;;;8.63;2.20;;;18.60;99.90;;;;;;5031362;28;20107;-83
2022/08/03 01:40:16;;;;;;;7.47;1.70;;;18.60;99.90;;;;;;5027150;28;20057;-80
2022/08/03 01:42:44;;;;;;;9.93;2.10;;;18.60;99.90;;;;;;5028619;28;20056;-80
2022/08/03 01:45:12;;;;;;;9.10;2.00;;;18.60;99.90;;;;;;5024339;28;20049;-82
2022/08/03 01:47:39;;;;;;;8.05;1.90;;;18.60;99.90;;;;;;5009275;28;20176;-81
2022/08/03 01:50:07;;;;;;;12.60;2.20;;;18.50;99.90;;;;;;4993674;28;20061;-82
2022/08/03 01:52:34;;;;;;;9.00;1.77;;;18.50;99.90;;;;;;5012462;28;20130;-81
2022/08/03 01:55:02;;;;;;;8.20;1.80;;;18.50;99.90;;;;;;5028516;28;20053;-80
2022/08/03 01:57:29;;;;;;;9.60;1.95;;;18.50;99.90;;;;;;5041226;28;20148;-80
2022/08/03 01:59:56;;;;;;;7.25;1.60;;;18.50;99.90;;;;;;5064379;28;20078;-82
2022/08/03 02:02:24;;;;;;;7.82;1.58;;;18.40;99.90;;;;;;5069327;28;20510;-81
2022/08/03 02:04:51;;;;;;;11.10;1.80;;;18.50;99.90;;;;;;5069915;28;20051;-81
2022/08/03 02:07:18;;;;;;;7.35;1.75;;;18.40;99.90;;;;;;5052641;28;20056;-81
2022/08/03 02:09:47;;;;;;;12.25;1.80;;;18.40;99.90;;;;;;5074589;28;20055;-80
2022/08/03 02:12:17;;;;;;;10.27;2.00;;;18.40;99.90;;;;;;5064706;23;20529;-80
2022/08/03 02:14:44;;;;;;;12.80;2.03;;;18.40;99.90;;;;;;5068623;28;20060;-83
2022/08/03 02:17:13;;;;;;;13.63;2.40;;;18.40;99.90;;;;;;5085338;28;20074;-83
2022/08/03 02:19:41;;;;;;;6.28;1.42;;;18.40;99.90;;;;;;5075437;28;20121;-81
2022/08/03 02:22:10;;;;;;;10.23;1.83;;;18.40;99.90;;;;;;5088163;28;20044;-82
2022/08/03 02:24:36;;;;;;;13.57;2.28;;;18.40;99.90;;;;;;5090616;28;20059;-80
2022/08/03 02:27:06;;;;;;;9.93;2.10;;;18.40;99.90;;;;;;5084335;28;20063;-81
2022/08/03 02:29:34;;;;;;;11.60;1.65;;;18.30;99.90;;;;;;5071457;28;20077;-80
2022/08/03 02:32:03;;;;;;;7.65;2.67;;;18.40;99.90;;;;;;5077718;28;20040;-81
2022/08/03 02:34:32;;;;;;;10.40;1.88;;;18.40;99.90;;;;;;5070241;28;20088;-81
2022/08/03 02:37:02;;;;;;;9.18;1.85;;;18.30;99.90;;;;;;5052114;28;20049;-82
2022/08/03 02:39:32;;;;;;;8.88;2.00;;;18.30;99.90;;;;;;5070550;28;20091;-82
2022/08/03 02:42:01;;;;;;;8.32;2.00;;;18.40;99.90;;;;;;5072699;28;20055;-82
2022/08/03 02:44:30;;;;;;;6.47;1.92;;;18.30;99.90;;;;;;5044896;28;20442;-82
2022/08/03 02:47:02;;;;;;;15.48;2.05;;;18.30;99.90;;;;;;5105847;28;20044;-81
2022/08/03 02:49:28;;;;;;;9.27;1.90;;;18.30;99.90;;;;;;5086969;28;20276;-80
2022/08/03 02:51:56;;;;;;;8.20;1.40;;;18.40;99.90;;;;;;5073557;28;20041;-80
2022/08/03 02:54:23;;;;;;;8.48;1.85;;;18.20;99.90;;;;;;5072847;28;20383;-79
2022/08/03 02:56:50;;;;;;;14.57;2.10;;;18.20;99.90;;;;;;5053617;28;20053;-82
2022/08/03 02:59:18;;;;;;;11.98;2.33;;;18.40;99.90;;;;;;5071545;28;20075;-82
2022/08/03 03:01:44;;;;;;;8.77;2.15;;;18.40;99.90;;;;;;5070460;28;20064;-80
2022/08/03 03:04:10;;;;;;;13.38;1.95;;;18.20;99.90;;;;;;5051984;28;20044;-81
2022/08/03 03:06:37;;;;;;;11.45;1.98;;;18.20;99.90;;;;;;5090100;28;20047;-80
2022/08/03 03:09:03;;;;;;;7.72;2.20;;;18.20;99.90;;;;;;5071300;28;20094;-80
2022/08/03 03:11:30;;;;;;;13.25;2.47;;;18.30;99.90;;;;;;5051824;28;20105;-78
2022/08/03 03:13:57;;;;;;;13.95;2.13;;;18.10;99.90;;;;;;5069705;28;20053;-80
2022/08/03 03:16:24;;;;;;;12.05;1.90;;;18.20;99.90;;;;;;5075429;28;20047;-81
2022/08/03 03:18:50;;;;;;;10.80;2.22;;;18.10;99.90;;;;;;5051525;28;20136;-82
2022/08/03 03:21:18;;;;;;;10.77;2.15;;;18.10;99.90;;;;;;5070101;28;20047;-83
2022/08/03 03:23:45;;;;;;;7.57;1.90;;;18.10;99.90;;;;;;5051638;28;20102;-80
2022/08/03 03:26:13;;;;;;;11.35;2.00;;;18.10;99.90;;;;;;5051683;28;20058;-81
2022/08/03 03:28:39;;;;;;;10.25;2.67;;;18.10;99.90;;;;;;5057166;28;20047;-82
2022/08/03 03:31:06;;;;;;;15.05;2.30;;;18.10;99.90;;;;;;5054582;28;20046;-81
2022/08/03 03:33:33;;;;;;;6.93;1.75;;;18.10;99.90;;;;;;5069698;28;20045;-82
2022/08/03 03:35:58;;;;;;;8.90;2.15;;;18.10;99.90;;;;;;5069676;28;20061;-79
2022/08/03 03:38:24;;;;;;;13.35;2.38;;;18.00;99.90;;;;;;5069414;28;20040;-82
2022/08/03 03:40:50;;;;;;;11.70;2.00;;;18.10;99.90;;;;;;5051333;28;20087;-79
2022/08/03 03:43:17;;;;;;;15.02;2.35;;;18.00;99.90;;;;;;5073210;28;20044;-81
2022/08/03 03:45:44;;;;;;;11.85;2.30;;;18.00;99.90;;;;;;5055231;28;20076;-82
2022/08/03 03:48:09;;;;;;;10.65;2.40;;;17.90;99.90;;;;;;5073480;28;20048;-80
2022/08/03 03:50:39;;;;;;;7.70;2.08;;;18.00;99.90;;;;;;5073144;28;20400;-81
2022/08/03 03:53:08;;;;;;;11.02;2.30;;;18.00;99.90;;;;;;5063369;28;20123;-80
2022/08/03 03:55:34;;;;;;;10.95;2.38;;;18.00;99.90;;;;;;5093012;28;20101;-81
2022/08/03 03:58:00;;;;;;;8.80;2.80;;;18.00;99.90;;;;;;5065873;28;20048;-78
2022/08/03 04:00:25;;;;;;;8.07;2.22;;;18.00;99.90;;;;;;5084059;28;20150;-79
2022/08/03 04:02:51;;;;;;;10.10;2.20;;;18.00;99.90;;;;;;5058318;28;20054;-83
2022/08/03 04:11:01;;;;;;;8.10;2.22;;;17.90;99.90;;;;;;5089285;28;20058;-82
2022/08/03 04:13:35;;;;;;;10.57;2.28;;;17.90;99.90;;;;;;5076897;28;20075;-81
2022/08/03 04:16:03;;;;;;;7.50;2.43;;;17.90;99.90;;;;;;5064216;28;20487;-82
2022/08/03 04:18:31;;;;;;;7.55;1.90;;;17.90;99.90;;;;;;5088044;28;20302;-83
2022/08/03 04:21:02;;;;;;;13.40;3.35;;;17.80;99.90;;;;;;5072959;28;20036;-82
2022/08/03 04:23:30;;;;;;;15.60;2.60;;;17.90;99.90;;;;;;5072728;28;20120;-81
2022/08/03 04:25:58;;;;;;;10.77;2.28;;;17.90;99.90;;;;;;5070786;28;20110;-80
2022/08/03 04:28:23;;;;;;;12.77;2.80;;;17.80;99.90;;;;;;5072099;28;20059;-79
2022/08/03 04:30:52;;;;;;;10.98;2.25;;;17.90;99.90;;;;;;5091484;28;20044;-82
2022/08/03 04:33:19;;;;;;;10.00;2.22;;;17.90;99.90;;;;;;5093152;28;20497;-81
2022/08/03 04:35:47;;;;;;;11.32;2.60;;;17.90;99.90;;;;;;5093037;28;20529;-83
2022/08/03 04:38:17;;;;;;;6.25;2.25;;;17.90;99.90;;;;;;5087917;28;20816;-80
2022/08/03 04:40:44;;;;;;;6.70;2.60;;;17.90;99.90;;;;;;5074725;28;20037;-81
2022/08/03 04:43:13;;;;;;;7.95;2.75;;;17.90;99.90;;;;;;5071999;28;20048;-81
2022/08/03 04:45:40;;;;;;;10.80;2.65;;;18.00;99.90;;;;;;5060207;28;20044;-81
2022/08/03 04:48:06;;;;;;;10.00;2.40;;;17.90;99.90;;;;;;5072194;28;20041;-84
2022/08/03 04:50:32;;;;;;;12.05;2.38;;;18.00;99.90;;;;;;5077475;28;20096;-80
2022/08/03 04:52:58;;;;;;;6.20;2.17;;;18.10;99.90;;;;;;5091341;28;20044;-81
2022/08/03 04:55:28;;;;;;;9.40;2.33;;;18.10;99.90;;;;;;5074219;28;20052;-81
2022/08/03 04:57:55;;;;;;;12.48;2.83;;;18.10;99.90;;;;;;5091453;28;20055;-81
2022/08/03 05:00:21;;;;;;;11.20;3.00;;;18.20;99.90;;;;;;5072045;28;20041;-80
2022/08/03 05:02:46;;;;;;;18.25;3.65;;;18.20;99.90;;;;;;5055080;28;20044;-82
2022/08/03 05:05:12;;;;;;;15.40;2.72;;;18.40;99.90;;;;;;5071874;28;20206;-81
2022/08/03 05:07:38;;;;;;;12.35;2.67;;;18.30;99.90;;;;;;5053728;28;20056;-80
2022/08/03 05:10:05;;;;;;;10.05;2.80;;;18.30;99.90;;;;;;5071369;28;20407;-81
2022/08/03 05:12:31;;;;;;;12.10;2.45;;;18.30;99.90;;;;;;5079836;28;20395;-82
2022/08/03 05:14:56;;;;;;;11.05;2.70;;;18.30;99.90;;;;;;5089872;28;20052;-83
2022/08/03 05:17:22;;;;;;;10.95;2.80;;;18.50;99.90;;;;;;5071927;28;20054;-82
2022/08/03 05:19:47;;;;;;;14.23;2.70;;;18.50;99.90;;;;;;5036713;28;20056;-82
2022/08/03 05:22:13;;;;;;;8.82;2.30;;;18.50;99.90;;;;;;5057001;28;20054;-80
2022/08/03 05:24:39;;;;;;;7.97;2.47;;;18.60;99.90;;;;;;5091995;28;20131;-80
2022/08/03 05:27:05;;;;;;;14.15;2.63;;;18.60;99.90;;;;;;5085161;28;20151;-80
2022/08/03 05:29:30;;;;;;;10.23;2.85;;;18.70;99.90;;;;;;5071398;28;20045;-85
2022/08/03 05:31:57;;;;;;;8.95;3.15;;;18.80;99.90;;;;;;5053497;28;20466;-80
2022/08/03 05:34:22;;;;;;;13.43;2.70;;;18.80;99.90;;;;;;5086964;28;20170;-82
2022/08/03 05:36:48;;;;;;;17.70;3.03;;;18.90;99.90;;;;;;5091657;28;20050;-83
2022/08/03 05:39:14;;;;;;;10.65;2.88;;;18.90;99.90;;;;;;5082273;28;20040;-80
2022/08/03 05:41:39;;;;;;;23.20;3.00;;;18.90;99.90;;;;;;5085279;28;20075;-81
2022/08/03 05:44:05;;;;;;;17.92;3.17;;;19.00;99.90;;;;;;5071003;28;20044;-81
2022/08/03 05:46:31;;;;;;;12.05;2.45;;;19.10;99.90;;;;;;5071780;28;20057;-81
2022/08/03 05:48:57;;;;;;;12.13;2.55;;;19.10;99.90;;;;;;5071914;28;20040;-80
2022/08/03 05:51:22;;;;;;;11.23;3.08;;;19.10;99.90;;;;;;5084533;28;20377;-81
2022/08/03 05:53:48;;;;;;;14.50;3.10;;;19.20;99.90;;;;;;5096529;28;20094;-82
2022/08/03 05:56:14;;;;;;;15.50;3.45;;;19.30;99.90;;;;;;5081400;28;20044;-81
2022/08/03 05:58:39;;;;;;;13.77;3.55;;;19.30;99.90;;;;;;5070388;28;20086;-84
2022/08/03 06:01:05;;;;;;;18.00;3.03;;;19.40;99.90;;;;;;5055105;28;20040;-81
2022/08/03 06:03:31;;;;;;;10.13;3.20;;;19.50;99.90;;;;;;5091002;28;20433;-80
2022/08/03 06:05:57;;;;;;;18.15;3.20;;;19.60;99.90;;;;;;5091221;28;20044;-82
2022/08/03 06:08:22;;;;;;;15.50;3.22;;;19.60;99.90;;;;;;5064272;28;20064;-79
2022/08/03 06:10:48;;;;;;;12.85;3.20;;;19.70;99.90;;;;;;5085652;28;20037;-81
2022/08/03 06:13:14;;;;;;;15.23;3.08;;;19.70;99.90;;;;;;5058666;28;20416;-81
2022/08/03 06:15:40;;;;;;;13.57;3.13;;;19.80;99.90;;;;;;5032011;28;20049;-83
2022/08/03 06:18:06;;;;;;;12.07;3.92;;;19.90;99.90;;;;;;5050673;28;20044;-80
2022/08/03 06:20:32;;;;;;;9.70;2.90;;;19.90;99.90;;;;;;5032816;28;20068;-85
2022/08/03 06:22:59;;;;;;;16.45;3.92;;;20.00;99.90;;;;;;5060295;28;20048;-83
2022/08/03 06:25:25;;;;;;;17.02;3.28;;;20.10;99.90;;;;;;5070392;28;20175;-82
2022/08/03 06:27:50;;;;;;;13.35;2.80;;;20.10;99.90;;;;;;5070141;28;20037;-79
2022/08/03 06:30:17;;;;;;;13.27;3.40;;;20.20;99.90;;;;;;5069687;28;20068;-84
2022/08/03 06:32:43;;;;;;;13.23;3.38;;;20.30;99.90;;;;;;5070571;28;20066;-83
2022/08/03 06:35:10;;;;;;;17.67;3.97;;;20.40;99.90;;;;;;5071965;28;20501;-83
2022/08/03 06:37:49;;;;;;;16.73;4.13;;;20.40;99.90;;;;;;5089424;28;20059;-80
2022/08/03 06:40:17;;;;;;;13.18;2.80;;;20.40;99.90;;;;;;5082669;28;20044;-86
2022/08/03 06:42:44;;;;;;;12.55;2.85;;;20.50;99.90;;;;;;5069883;28;20087;-81
2022/08/03 06:45:10;;;;;;;17.00;3.55;;;20.60;99.90;;;;;;5069742;28;20054;-84
2022/08/03 06:47:38;;;;;;;12.32;3.20;;;20.70;99.90;;;;;;5071928;28;20101;-83
2022/08/03 06:50:04;;;;;;;13.68;3.25;;;20.80;99.90;;;;;;5080792;28;20407;-85
2022/08/03 06:52:30;;;;;;;19.13;3.05;;;20.90;99.90;;;;;;5071490;28;20056;-83
2022/08/03 06:54:56;;;;;;;15.23;2.58;;;21.10;99.90;;;;;;5051808;28;20040;-84
2022/08/03 06:57:22;;;;;;;17.63;3.47;;;21.10;99.90;;;;;;5070045;28;20235;-85
2022/08/03 06:59:47;;;;;;;15.68;3.78;;;21.20;99.90;;;;;;5069906;28;20070;-84
2022/08/03 07:02:13;;;;;;;22.48;3.92;;;21.40;99.90;;;;;;5070737;28;20078;-83
2022/08/03 07:04:39;;;;;;;14.13;2.55;;;21.50;99.90;;;;;;5070206;28;20044;-83
2022/08/03 07:07:04;;;;;;;15.32;2.85;;;21.60;99.90;;;;;;5052183;28;20044;-81
2022/08/03 07:09:30;;;;;;;16.13;3.55;;;21.70;99.90;;;;;;5054038;28;20083;-87
2022/08/03 07:11:56;;;;;;;14.70;3.60;;;21.80;99.90;;;;;;5054384;28;20067;-83
2022/08/03 07:14:22;;;;;;;15.57;3.40;;;22.00;99.90;;;;;;5069997;28;20056;-85
2022/08/03 07:16:47;;;;;;;13.23;2.60;;;22.00;99.90;;;;;;5075157;28;20033;-82
2022/08/03 07:19:13;;;;;;;11.70;3.22;;;22.10;99.90;;;;;;5076934;28;20541;-85
2022/08/03 07:21:39;;;;;;;11.40;2.90;;;22.20;99.90;;;;;;5076470;28;20040;-84
2022/08/03 07:24:05;;;;;;;14.13;3.72;;;22.20;99.90;;;;;;5073956;28;20426;-84
2022/08/03 07:26:30;;;;;;;14.77;3.33;;;22.30;99.90;;;;;;5083041;28;20044;-83
2022/08/03 07:28:56;;;;;;;9.88;2.70;;;22.30;99.90;;;;;;5091743;28;20036;-84
2022/08/03 07:31:21;;;;;;;15.77;3.92;;;22.40;99.90;;;;;;5089304;28;20063;-85
2022/08/03 07:33:47;;;;;;;20.92;3.88;;;22.50;99.90;;;;;;5083608;28;20111;-84
2022/08/03 07:36:13;;;;;;;13.35;2.95;;;22.70;99.90;;;;;;5097901;28;20040;-82
2022/08/03 07:38:38;;;;;;;12.57;3.22;;;22.70;99.90;;;;;;5097243;28;20032;-85
2022/08/03 07:41:04;;;;;;;15.38;3.17;;;22.90;99.90;;;;;;5096725;28;20105;-83
2022/08/03 07:43:30;;;;;;;18.48;3.42;;;22.90;99.90;;;;;;5091662;28;20240;-82
2022/08/03 07:45:55;;;;;;;12.05;3.28;;;23.00;99.90;;;;;;5087739;28;20103;-83
2022/08/03 07:48:21;;;;;;;15.38;3.22;;;23.10;99.90;;;;;;5075798;28;20041;-84
2022/08/03 07:50:47;;;;;;;20.30;3.53;;;23.10;99.90;;;;;;5058420;28;20056;-81
2022/08/03 07:53:13;;;;;;;14.35;2.80;;;23.30;99.90;;;;;;5076260;28;20072;-86
2022/08/03 07:55:38;;;;;;;11.77;3.30;;;23.40;99.90;;;;;;5058812;28;20561;-81
2022/08/03 07:58:08;;;;;;;14.05;3.28;;;23.40;99.90;;;;;;5063413;28;20123;-85
2022/08/03 08:00:34;;;;;;;13.90;3.60;;;23.50;99.90;;;;;;5078299;28;20044;-86
2022/08/03 08:03:03;;;;;;;9.77;3.42;;;23.60;99.90;;;;;;5066386;28;20048;-82
2022/08/03 08:05:28;;;;;;;16.42;3.53;;;23.60;99.90;;;;;;5072511;28;20045;-86
2022/08/03 08:07:54;;;;;;;20.90;3.75;;;23.90;99.90;;;;;;5077887;28;20483;-86
2022/08/03 08:10:20;;;;;;;13.75;3.92;;;24.00;99.90;;;;;;5096392;28;20083;-84
2022/08/03 08:12:46;;;;;;;14.07;3.30;;;24.10;99.90;;;;;;5096093;28;20059;-85
2022/08/03 08:15:14;;;;;;;13.60;3.17;;;24.40;99.90;;;;;;5077763;28;20134;-85
2022/08/03 08:17:45;;;;;;;16.83;2.40;;;24.50;99.90;;;;;;5059002;28;20051;-87
2022/08/03 08:20:14;;;;;;;17.73;3.22;;;24.60;99.90;;;;;;5060808;28;20075;-89
2022/08/03 08:22:42;;;;;;;14.45;3.10;;;25.00;99.90;;;;;;5094780;28;20051;-83
2022/08/03 08:25:08;;;;;;;15.13;3.38;;;25.10;99.90;;;;;;5084994;28;20091;-86
2022/08/03 08:27:40;;;;;;;11.20;3.20;;;25.20;99.90;;;;;;5074264;28;20044;-88
2022/08/03 08:30:07;;;;;;;9.65;3.58;;;25.50;99.90;;;;;;5073077;28;20071;-87
2022/08/03 08:32:33;;;;;;;13.50;2.90;;;25.60;99.90;;;;;;5073147;28;20127;-84
2022/08/03 08:34:59;;;;;;;13.18;2.95;;;25.60;99.90;;;;;;5070835;28;20139;-86
2022/08/03 08:37:25;;;;;;;15.75;3.25;;;25.60;99.90;;;;;;5089084;28;20060;-84
2022/08/03 08:39:50;;;;;;;14.60;3.30;;;25.70;99.90;;;;;;5107102;28;20048;-81
2022/08/03 08:42:16;;;;;;;20.60;3.78;;;25.80;99.90;;;;;;5095712;28;20093;-82
2022/08/03 08:44:42;;;;;;;15.40;4.03;;;25.80;99.90;;;;;;5067850;28;20090;-82
2022/08/03 08:47:09;;;;;;;14.55;3.17;;;25.80;99.90;;;;;;5093577;28;20095;-82
2022/08/03 08:49:37;;;;;;;14.40;2.83;;;25.60;99.90;;;;;;5092352;28;20139;-77
2022/08/03 08:52:03;;;;;;;12.27;3.60;;;25.70;99.90;;;;;;5053650;28;20053;-81
2022/08/03 08:54:32;;;;;;;12.85;3.65;;;25.70;99.90;;;;;;5072139;28;20063;-80
2022/08/03 08:57:01;;;;;;;19.70;3.30;;;25.80;99.90;;;;;;5090346;28;20070;-83
2022/08/03 08:59:27;;;;;;;15.45;3.95;;;26.00;99.90;;;;;;5092501;28;20047;-81
2022/08/03 09:01:57;;;;;;;12.73;3.40;;;26.10;99.90;;;;;;5092340;28;20036;-82
2022/08/03 09:04:23;;;;;;;15.23;3.50;;;26.30;99.90;;;;;;5092112;28;20056;-82
2022/08/03 09:06:49;;;;;;;14.10;3.75;;;26.40;99.90;;;;;;5076759;28;20070;-79
2022/08/03 09:09:15;;;;;;;15.15;3.97;;;26.50;99.90;;;;;;5071844;28;20460;-78
2022/08/03 09:11:44;;;;;;;11.15;3.17;;;26.20;99.90;;;;;;5053946;28;20088;-84
2022/08/03 09:14:10;;;;;;;13.32;3.10;;;26.40;99.90;;;;;;5071693;28;20106;-82
2022/08/03 09:16:36;;;;;;;15.10;3.50;;;26.40;99.90;;;;;;5055252;28;20075;-81
2022/08/03 09:19:12;;;;;;;16.67;3.80;;;26.40;99.90;;;;;;5071666;28;20095;-79
2022/08/03 09:21:38;;;;;;;15.63;3.30;;;26.40;99.90;;;;;;5055696;28;20583;-83
2022/08/03 09:24:05;;;;;;;13.43;3.45;;;26.60;99.90;;;;;;5033902;28;20084;-80
2022/08/03 09:26:33;;;;;;;10.25;3.67;;;26.80;99.90;;;;;;5053514;28;20049;-80
2022/08/03 09:29:01;;;;;;;18.42;3.92;;;26.80;99.90;;;;;;5071272;28;20577;-81
2022/08/03 09:31:36;;;;;;;18.17;4.13;;;26.80;99.90;;;;;;5071588;28;20400;-79
2022/08/03 09:34:03;;;;;;;13.88;3.60;;;27.00;99.90;;;;;;5054356;28;20056;-80
2022/08/03 09:36:44;;;;;;;15.85;4.35;;;27.10;99.90;;;;;;5071236;28;20056;-78
2022/08/03 09:39:12;;;;;;;16.65;3.60;;;27.30;99.90;;;;;;5070523;28;20044;-80
2022/08/03 09:41:39;;;;;;;21.33;3.70;;;27.40;99.90;;;;;;5053838;28;20071;-81
2022/08/03 09:44:05;;;;;;;22.52;3.65;;;27.40;99.90;;;;;;5053379;28;20080;-80
2022/08/03 09:46:32;;;;;;;17.30;3.72;;;27.50;99.90;;;;;;5088720;28;20075;-80
2022/08/03 09:49:11;;;;;;;15.80;3.83;;;27.60;99.90;;;;;;5091294;28;20052;-80
2022/08/03 09:51:36;;;;;;;12.95;3.67;;;27.60;99.90;;;;;;5072455;28;20044;-82
2022/08/03 09:54:03;;;;;;;14.82;3.35;;;27.70;99.90;;;;;;5052956;28;20117;-82
2022/08/03 09:56:43;;;;;;;16.08;3.03;;;27.70;99.90;;;;;;5086628;28;20096;-79
2022/08/03 09:59:10;;;;;;;19.02;3.78;;;27.90;99.90;;;;;;5083912;28;20399;-79
2022/08/03 10:01:36;;;;;;;15.48;2.80;;;27.90;99.90;;;;;;5081985;28;20048;-80
2022/08/03 10:04:02;;;;;;;13.95;3.45;;;28.10;99.90;;;;;;5073931;28;20059;-78
2022/08/03 10:06:27;;;;;;;15.48;3.40;;;28.20;99.90;;;;;;5064780;28;20062;-77
2022/08/03 10:09:13;;;;;;;16.30;4.45;;;28.20;99.90;;;;;;5071109;28;20048;-77
2022/08/03 10:11:41;;;;;;;19.65;3.83;;;28.20;99.90;;;;;;5052945;28;20048;-78
2022/08/03 10:14:17;;;;;;;12.98;2.95;;;28.10;99.90;;;;;;5070775;28;20056;-79
2022/08/03 10:16:45;;;;;;;20.42;3.63;;;28.20;99.90;;;;;;5071506;28;20067;-77
2022/08/03 10:19:10;;;;;;;13.82;3.30;;;28.10;99.90;;;;;;5059095;28;20503;-78
2022/08/03 10:21:40;;;;;;;13.07;3.28;;;28.20;99.90;;;;;;5050731;28;20080;-76
2022/08/03 10:24:09;;;;;;;11.68;3.20;;;28.30;99.90;;;;;;5050308;28;20041;-76
2022/08/03 10:26:37;;;;;;;18.35;4.20;;;28.30;99.90;;;;;;5050540;28;20049;-77
2022/08/03 10:29:07;;;;;;;17.25;3.83;;;28.30;99.90;;;;;;5071044;28;20138;-77
2022/08/03 10:31:39;;;;;;;12.48;4.00;;;28.30;99.90;;;;;;5070285;28;20055;-78
2022/08/03 10:34:12;;;;;;;16.17;4.00;;;28.30;99.90;;;;;;5070439;28;20098;-77
2022/08/03 10:36:40;;;;;;;18.55;4.38;;;28.30;99.90;;;;;;5052427;28;20053;-79
2022/08/03 10:39:06;;;;;;;17.52;4.60;;;28.40;99.90;;;;;;5071325;28;20052;-80
2022/08/03 10:41:38;;;;;;;21.83;3.92;;;28.40;99.90;;;;;;5051978;28;20135;-76
2022/08/03 10:44:17;;;;;;;18.85;4.55;;;28.40;99.90;;;;;;5069732;28;20041;-74
2022/08/03 10:46:44;;;;;;;18.35;4.32;;;28.60;99.90;;;;;;5070796;28;20083;-78
2022/08/03 10:49:28;;;;;;;15.98;4.20;;;28.80;99.90;;;;;;5052053;28;20052;-78
2022/08/03 10:51:54;;;;;;;;;;;28.90;99.90;;;;;;5049703;28;20049;-78
2022/08/03 10:57:33;;;;;;;22.70;4.10;;;28.90;99.90;;;;;;5032123;28;19927;-77
2022/08/03 10:57:44;;;;;;;19.67;4.05;;;28.80;99.90;;;;;;5071253;28;20407;-79
2022/08/03 11:00:12;;;;;;;18.38;5.55;;;29.00;99.90;;;;;;5052302;28;20098;-79
2022/08/03 11:03:05;;;;;;;22.17;4.70;;;29.00;99.90;;;;;;5070281;28;20083;-78
2022/08/03 11:05:33;;;;;;;24.13;5.35;;;29.10;99.90;;;;;;5087937;28;20737;-79
2022/08/03 11:08:28;;;;;;;19.85;4.78;;;29.10;99.90;;;;;;5072163;28;20123;-79
2022/08/03 11:10:59;;;;;;;21.77;5.38;;;29.00;99.90;;;;;;5089404;28;20498;-77
2022/08/03 11:13:29;;;;;;;17.05;4.75;;;29.00;99.90;;;;;;5089929;28;20113;-76
2022/08/03 11:15:58;;;;;;;18.77;5.32;;;29.20;99.90;;;;;;5077183;28;20487;-79
2022/08/03 11:18:24;;;;;;;22.77;5.43;;;29.20;99.90;;;;;;5051718;28;20060;-78
2022/08/03 11:20:52;;;;;;;22.52;4.88;;;29.20;99.90;;;;;;5069865;28;20036;-82
2022/08/03 11:23:44;;;;;;;22.08;5.15;;;29.30;99.90;;;;;;5069682;28;20055;-84
2022/08/03 11:26:21;;;;;;;21.08;5.13;;;29.40;99.90;;;;;;5081934;28;20036;-82
2022/08/03 11:28:47;;;;;;;16.23;5.63;;;29.50;99.90;;;;;;5089856;28;20052;-81
2022/08/03 11:31:22;;;;;;;18.08;5.78;;;29.30;99.90;;;;;;5089902;28;20067;-82
2022/08/03 11:34:08;;;;;;;18.30;5.20;;;29.30;99.90;;;;;;5071679;28;20044;-83
2022/08/03 11:37:11;;;;;;;19.10;4.80;;;29.40;99.90;;;;;;5062193;28;20094;-85
2022/08/03 11:39:44;;;;;;;25.58;5.63;;;29.40;99.90;;;;;;5069721;28;20048;-82
2022/08/03 11:42:22;;;;;;;25.08;5.35;;;29.30;99.90;;;;;;5069359;28;20047;-80
2022/08/03 11:44:56;;;;;;;26.50;5.38;;;29.30;99.90;;;;;;5051112;28;20075;-82
2022/08/03 11:47:23;;;;;;;24.55;6.10;;;29.40;99.90;;;;;;5052361;28;20053;-82
2022/08/03 11:49:50;;;;;;;19.98;4.50;;;29.30;99.90;;;;;;5069672;28;20051;-83
2022/08/03 11:52:18;;;;;;;20.63;4.78;;;29.40;99.90;;;;;;5051886;28;20045;-81
2022/08/03 11:54:44;;;;;;;24.65;5.53;;;29.50;99.90;;;;;;5069958;28;20049;-77
2022/08/03 11:57:11;;;;;;;22.92;4.90;;;29.60;99.90;;;;;;5051479;28;20058;-78
2022/08/03 11:59:37;;;;;;;26.23;6.18;;;29.70;99.90;;;;;;5051132;28;20056;-83
2022/08/03 12:02:10;;;;;;;18.83;4.10;;;29.60;99.90;;;;;;5032705;28;20222;-81
2022/08/03 12:05:00;;;;;;;20.80;5.07;;;29.70;99.90;;;;;;5064321;28;20130;-80
2022/08/03 12:07:28;;;;;;;19.42;4.38;;;29.70;99.90;;;;;;5073088;28;20087;-79
2022/08/03 12:10:11;;;;;;;22.27;5.53;;;29.70;99.90;;;;;;5072928;28;20047;-82
2022/08/03 12:12:37;;;;;;;20.17;5.30;;;29.80;99.90;;;;;;5072869;28;20050;-83
2022/08/03 12:15:04;;;;;;;22.55;5.00;;;29.90;99.90;;;;;;5071405;28;20056;-81
2022/08/03 12:17:34;;;;;;;18.48;4.70;;;30.10;99.90;;;;;;5035042;28;20530;-82
2022/08/03 12:20:00;;;;;;;19.75;4.95;;;30.10;99.90;;;;;;5065221;28;20056;-83
2022/08/03 12:22:36;;;;;;;21.92;4.82;;;30.20;99.90;;;;;;5072926;28;20450;-80
2022/08/03 12:25:03;;;;;;;21.48;5.53;;;30.40;99.90;;;;;;5063476;28;20175;-84
2022/08/03 12:27:29;;;;;;;23.90;7.00;;;30.30;99.90;;;;;;5054967;28;20064;-84
2022/08/03 12:29:57;;;;;;;25.58;6.32;;;30.20;99.90;;;;;;5072435;28;20493;-84
2022/08/03 12:32:24;;;;;;;30.45;6.03;;;30.20;99.90;;;;;;5055874;28;20135;-80
2022/08/03 12:34:51;;;;;;;21.95;5.40;;;30.20;99.90;;;;;;5072300;28;20085;-80
2022/08/03 12:37:20;;;;;;;21.13;5.80;;;30.20;99.90;;;;;;5073837;28;20143;-79
2022/08/03 12:39:54;;;;;;;21.63;6.10;;;30.20;99.90;;;;;;5054458;28;20056;-80
2022/08/03 12:42:20;;;;;;;17.92;4.60;;;30.50;99.90;;;;;;5054910;28;20048;-81
2022/08/03 12:44:47;;;;;;;20.95;5.55;;;30.50;99.90;;;;;;5072324;28;20957;-79
2022/08/03 12:47:14;;;;;;;23.50;6.30;;;30.40;99.90;;;;;;5073439;28;20098;-80
2022/08/03 12:49:48;;;;;;;18.58;5.88;;;30.30;99.90;;;;;;5072106;28;20134;-78
2022/08/03 12:52:14;;;;;;;;;;;30.20;99.90;;;;;;5073180;28;20036;-79
2022/08/03 12:54:41;;;;;;;22.25;5.07;;;30.30;99.90;;;;;;5073065;28;19963;-78